createdAt,value
2022-10-09T03:36:08.866Z,0
2022-10-09T03:41:10.624Z,0
2022-10-09T03:46:12.606Z,2.04
2022-10-09T03:51:14.273Z,2.04
2022-10-09T03:56:15.879Z,0
2022-10-09T04:01:18.021Z,0
2022-10-09T04:06:19.717Z,0
2022-10-09T04:11:21.387Z,0
2022-10-09T04:16:23.380Z,1.35
2022-10-09T04:21:25.191Z,1.35
2022-10-09T04:26:26.759Z,0
2022-10-09T04:31:28.807Z,0
2022-10-09T04:36:30.421Z,2.38
2022-10-09T04:41:39.224Z,2.81
2022-10-09T04:46:40.916Z,2.81
2022-10-09T04:51:43.587Z,0.25
2022-10-09T04:56:45.218Z,0.25
2022-10-09T05:01:47.445Z,0.98
2022-10-09T05:06:49.083Z,0.98
2022-10-09T05:11:50.847Z,4.43
2022-10-09T05:21:58.583Z,1.29
2022-10-09T05:27:00.305Z,1.29
2022-10-09T05:32:02.458Z,2.2
2022-10-09T05:37:04.136Z,2.2
2022-10-09T05:42:05.782Z,1.2
2022-10-09T05:47:07.501Z,1.2
2022-10-09T05:52:09.181Z,3.34
2022-10-09T05:57:10.839Z,3.98
2022-10-09T06:02:12.862Z,3.98
2022-10-09T06:07:14.538Z,0.61
2022-10-09T06:12:16.270Z,0.61
2022-10-09T06:17:17.945Z,3.68
2022-10-09T06:22:19.518Z,3.68
2022-10-09T06:27:21.106Z,0.99
2022-10-09T06:32:22.806Z,0.99
2022-10-09T06:37:24.461Z,4.26
2022-10-09T06:42:26.131Z,4.26
2022-10-09T06:47:27.798Z,1.63
2022-10-09T06:52:29.415Z,1.63
2022-10-09T06:57:31.076Z,1.42
2022-10-09T07:02:33.397Z,1.42
2022-10-09T07:07:38.862Z,0
2022-10-09T07:12:40.535Z,1.28
2022-10-09T07:17:42.211Z,1.28
2022-10-09T07:22:43.818Z,0
2022-10-09T07:27:45.493Z,0
2022-10-09T07:32:48.778Z,1.89
2022-10-09T07:37:51.399Z,1.89
2022-10-09T07:42:53.153Z,2.81
2022-10-09T07:47:54.827Z,2.81
2022-10-09T07:52:56.463Z,0
2022-10-09T07:57:58.192Z,0
2022-10-09T08:03:00.099Z,0.94
2022-10-09T08:08:01.876Z,0.94
2022-10-09T08:13:03.558Z,2.76
2022-10-09T08:18:05.254Z,2.76
2022-10-09T08:23:06.899Z,0.82
2022-10-09T08:28:08.962Z,2.34
2022-10-09T08:33:10.788Z,2.34
2022-10-09T08:43:19.620Z,2.44
2022-10-09T08:48:23.585Z,1.58
2022-10-09T08:53:30.953Z,1.58
2022-10-09T08:58:33.977Z,1.46
2022-10-09T09:03:42.703Z,1.46
2022-10-09T09:08:48.968Z,4.26
2022-10-09T09:13:57.183Z,4.26
2022-10-09T09:24:12.701Z,1.51
2022-10-09T09:29:15.994Z,2.69
2022-10-09T09:34:20.737Z,2.69
2022-10-09T09:44:30.498Z,1.89
2022-10-09T09:49:32.150Z,1.89
2022-10-09T09:54:34.104Z,2.84
2022-10-09T09:59:37.403Z,2.84
2022-10-09T10:09:44.452Z,2.5
2022-10-09T10:14:50.004Z,3.43
2022-10-09T10:19:51.559Z,3.43
2022-10-09T10:24:55.667Z,1.36
2022-10-09T10:29:59.398Z,1.36
2022-10-09T10:35:03.236Z,1.68
2022-10-09T10:40:07.369Z,1.68
2022-10-09T10:45:13.089Z,2
2022-10-09T10:50:15.918Z,2
2022-10-09T10:55:23.472Z,2.22
2022-10-09T11:00:25.135Z,2.05
2022-10-09T11:05:30.843Z,2.05
2022-10-09T11:10:36.454Z,2.36
2022-10-09T11:15:43.046Z,2.36
2022-10-09T11:20:53.167Z,1.2
2022-10-09T11:25:58.835Z,1.2
2022-10-09T11:31:04.072Z,2.97
2022-10-09T11:41:11.738Z,3.32
2022-10-09T11:51:22.892Z,3.43
2022-10-09T11:56:25.827Z,3.43
2022-10-09T12:01:31.776Z,1.9
2022-10-09T12:11:38.877Z,2.94
2022-10-09T12:16:42.012Z,0.87
2022-10-09T12:21:47.294Z,0.87
2022-10-09T12:26:50.114Z,4.25
2022-10-09T12:31:54.257Z,4.25
2022-10-09T12:42:08.481Z,2.12
2022-10-09T12:47:15.527Z,2.18
2022-10-09T12:52:17.253Z,2.18
2022-10-09T12:57:24.027Z,1.04
2022-10-09T13:02:27.727Z,1.04
2022-10-09T13:07:30.152Z,5.33
2022-10-09T13:12:32.365Z,1.65
2022-10-09T13:17:35.252Z,1.65
2022-10-09T13:22:37.148Z,0.28
2022-10-09T13:27:39.435Z,0.28
2022-10-09T13:32:41.180Z,3.47
2022-10-09T13:37:43.093Z,3.47
2022-10-09T13:42:48.201Z,0.83
2022-10-09T13:47:51.800Z,0.83
2022-10-09T13:52:53.638Z,1.45
2022-10-09T13:57:55.824Z,1.45
2022-10-09T14:02:57.681Z,2.2
2022-10-09T14:07:59.514Z,2.2
2022-10-09T14:13:01.044Z,1.1
2022-10-09T14:18:02.741Z,1.1
2022-10-09T14:23:04.493Z,0
2022-10-09T14:28:06.753Z,2.93
2022-10-09T14:33:08.480Z,2.93
2022-10-09T14:38:10.174Z,1.27
2022-10-09T14:43:11.924Z,1.27
2022-10-09T14:48:13.582Z,0.7
2022-10-09T14:53:15.214Z,0.7
2022-10-09T14:58:17.792Z,0
2022-10-09T15:03:19.844Z,0
2022-10-09T15:08:21.914Z,0.72
2022-10-09T15:13:23.741Z,0.72
2022-10-09T15:18:25.529Z,0
2022-10-09T15:23:27.675Z,0
2022-10-09T15:28:29.657Z,0
2022-10-09T15:33:31.450Z,0
2022-10-09T15:38:33.172Z,0
2022-10-09T15:48:40.658Z,0
2022-10-09T15:53:43.473Z,0
2022-10-09T15:58:45.147Z,0
2022-10-09T16:03:47.445Z,0
2022-10-09T16:08:49.918Z,0
2022-10-09T16:13:52.176Z,0
2022-10-09T16:18:54.229Z,0
2022-10-09T16:24:00.400Z,0
2022-10-09T16:29:02.499Z,0
2022-10-09T16:34:04.939Z,0
2022-10-09T16:39:06.822Z,0
2022-10-09T16:44:11.657Z,0
2022-10-09T16:49:14.833Z,0
2022-10-09T16:54:16.670Z,0
2022-10-09T16:59:18.659Z,0
2022-10-09T17:04:20.432Z,0
2022-10-09T17:09:22.729Z,0
2022-10-09T17:14:24.879Z,0
2022-10-09T17:19:26.549Z,0
2022-10-09T17:24:28.715Z,0
2022-10-09T17:29:31.072Z,0
2022-10-09T17:34:32.981Z,0
2022-10-09T17:39:34.998Z,0
2022-10-09T17:44:36.968Z,0
2022-10-09T17:49:38.915Z,0
2022-10-09T17:54:40.881Z,0
2022-10-09T17:59:42.881Z,0
2022-10-09T18:04:45.152Z,0
2022-10-09T18:09:47.413Z,0
2022-10-09T18:14:49.680Z,0
2022-10-09T18:19:51.846Z,0
2022-10-09T18:24:54.199Z,0
2022-10-09T18:29:56.917Z,0
2022-10-09T18:34:59.206Z,0
2022-10-09T18:40:02.688Z,0
2022-10-09T18:45:05.658Z,0
2022-10-09T18:50:09.463Z,0
2022-10-09T18:55:14.223Z,0
2022-10-09T19:00:16.902Z,0
2022-10-09T19:05:18.998Z,0
2022-10-09T19:10:20.934Z,0
2022-10-09T19:15:22.825Z,0
2022-10-09T19:20:24.631Z,0
2022-10-09T19:25:26.690Z,0
2022-10-09T19:30:28.653Z,0
2022-10-09T19:35:30.613Z,0
2022-10-09T19:40:34.682Z,1.48
2022-10-09T19:45:36.948Z,1.48
2022-10-09T19:50:40.751Z,2.31
2022-10-09T19:55:42.749Z,2.31
2022-10-09T20:00:44.707Z,2.27
2022-10-09T20:05:46.765Z,2.27
2022-10-09T20:10:48.801Z,1.56
2022-10-09T20:15:50.707Z,1.56
2022-10-09T20:20:52.399Z,0
2022-10-09T20:25:58.880Z,0.83
2022-10-09T20:31:01.135Z,0.83
2022-10-09T20:36:03.115Z,1.39
2022-10-09T20:41:05.794Z,1.39
2022-10-09T20:46:08.300Z,0
2022-10-09T20:51:10.018Z,0
2022-10-09T20:56:12.394Z,0
2022-10-09T21:01:14.422Z,0
2022-10-09T21:06:18.102Z,0
2022-10-09T21:11:20.288Z,0
2022-10-09T21:16:23.204Z,0
2022-10-09T21:21:24.865Z,0
2022-10-09T21:26:27.649Z,0
2022-10-09T21:31:30.144Z,0
2022-10-09T21:36:34.587Z,0
2022-10-09T21:41:36.603Z,0
